sensor_id;sensor_type;location;lat;lon;timestamp;P1;durP1;ratioP1;P2;durP2;ratioP2
47483;SDS011;54076;50.322;18.650;2023-12-20T00:02:22;15.00;;;7.90;;
47483;SDS011;54076;50.322;18.650;2023-12-20T00:07:23;16.20;;;8.20;;
47483;SDS011;54076;50.322;18.650;2023-12-20T00:12:24;15.30;;;6.70;;
47483;SDS011;54076;50.322;18.650;2023-12-20T00:17:25;15.90;;;8.10;;
47483;SDS011;54076;50.322;18.650;2023-12-20T00:22:26;16.30;;;7.30;;
47483;SDS011;54076;50.322;18.650;2023-12-20T00:27:27;15.30;;;7.20;;
47483;SDS011;54076;50.322;18.650;2023-12-20T00:32:28;14.40;;;7.10;;
47483;SDS011;54076;50.322;18.650;2023-12-20T00:37:29;14.40;;;7.70;;
47483;SDS011;54076;50.322;18.650;2023-12-20T00:42:30;15.70;;;7.00;;
47483;SDS011;54076;50.322;18.650;2023-12-20T00:47:31;14.10;;;7.10;;
47483;SDS011;54076;50.322;18.650;2023-12-20T00:52:32;18.40;;;7.80;;
47483;SDS011;54076;50.322;18.650;2023-12-20T00:57:34;15.10;;;7.20;;
47483;SDS011;54076;50.322;18.650;2023-12-20T01:02:35;14.50;;;7.00;;
47483;SDS011;54076;50.322;18.650;2023-12-20T01:07:36;15.30;;;7.50;;
47483;SDS011;54076;50.322;18.650;2023-12-20T01:12:37;13.00;;;6.80;;
47483;SDS011;54076;50.322;18.650;2023-12-20T01:17:38;15.30;;;7.90;;
47483;SDS011;54076;50.322;18.650;2023-12-20T01:22:39;14.40;;;6.80;;
47483;SDS011;54076;50.322;18.650;2023-12-20T01:27:40;13.40;;;7.10;;
47483;SDS011;54076;50.322;18.650;2023-12-20T01:32:41;15.40;;;7.70;;
47483;SDS011;54076;50.322;18.650;2023-12-20T01:37:42;18.60;;;7.80;;
47483;SDS011;54076;50.322;18.650;2023-12-20T01:42:43;14.10;;;7.40;;
47483;SDS011;54076;50.322;18.650;2023-12-20T01:47:44;16.40;;;8.00;;
47483;SDS011;54076;50.322;18.650;2023-12-20T01:52:45;16.20;;;6.80;;
47483;SDS011;54076;50.322;18.650;2023-12-20T01:57:46;14.70;;;7.10;;
47483;SDS011;54076;50.322;18.650;2023-12-20T02:02:48;12.10;;;6.10;;
47483;SDS011;54076;50.322;18.650;2023-12-20T02:07:50;14.10;;;7.50;;
47483;SDS011;54076;50.322;18.650;2023-12-20T02:12:51;14.20;;;7.80;;
47483;SDS011;54076;50.322;18.650;2023-12-20T02:17:52;17.30;;;8.70;;
47483;SDS011;54076;50.322;18.650;2023-12-20T02:22:54;15.60;;;7.50;;
47483;SDS011;54076;50.322;18.650;2023-12-20T02:27:56;13.80;;;6.40;;
47483;SDS011;54076;50.322;18.650;2023-12-20T02:32:57;16.20;;;7.70;;
47483;SDS011;54076;50.322;18.650;2023-12-20T02:38:00;13.90;;;7.20;;
47483;SDS011;54076;50.322;18.650;2023-12-20T02:43:01;11.70;;;6.10;;
47483;SDS011;54076;50.322;18.650;2023-12-20T02:48:03;15.20;;;6.90;;
47483;SDS011;54076;50.322;18.650;2023-12-20T02:53:04;14.80;;;6.70;;
47483;SDS011;54076;50.322;18.650;2023-12-20T02:58:05;14.20;;;6.90;;
47483;SDS011;54076;50.322;18.650;2023-12-20T03:03:06;13.80;;;7.20;;
47483;SDS011;54076;50.322;18.650;2023-12-20T03:08:07;14.20;;;7.40;;
47483;SDS011;54076;50.322;18.650;2023-12-20T03:13:08;18.80;;;7.50;;
47483;SDS011;54076;50.322;18.650;2023-12-20T03:18:09;14.70;;;8.00;;
47483;SDS011;54076;50.322;18.650;2023-12-20T03:23:10;15.70;;;7.50;;
47483;SDS011;54076;50.322;18.650;2023-12-20T03:28:11;16.30;;;7.70;;
47483;SDS011;54076;50.322;18.650;2023-12-20T03:33:12;16.80;;;7.40;;
47483;SDS011;54076;50.322;18.650;2023-12-20T03:38:13;16.20;;;7.70;;
47483;SDS011;54076;50.322;18.650;2023-12-20T03:43:14;15.70;;;7.50;;
47483;SDS011;54076;50.322;18.650;2023-12-20T03:48:15;12.30;;;6.70;;
47483;SDS011;54076;50.322;18.650;2023-12-20T03:53:16;11.60;;;6.10;;
47483;SDS011;54076;50.322;18.650;2023-12-20T03:58:17;12.50;;;5.60;;
47483;SDS011;54076;50.322;18.650;2023-12-20T04:03:18;11.50;;;5.80;;
47483;SDS011;54076;50.322;18.650;2023-12-20T04:08:19;12.20;;;5.30;;
47483;SDS011;54076;50.322;18.650;2023-12-20T04:13:20;10.30;;;5.70;;
47483;SDS011;54076;50.322;18.650;2023-12-20T04:18:20;11.00;;;5.90;;
47483;SDS011;54076;50.322;18.650;2023-12-20T04:23:21;10.80;;;5.60;;
47483;SDS011;54076;50.322;18.650;2023-12-20T04:28:22;11.20;;;5.80;;
47483;SDS011;54076;50.322;18.650;2023-12-20T04:33:23;12.30;;;5.80;;
47483;SDS011;54076;50.322;18.650;2023-12-20T04:38:25;13.40;;;5.80;;
47483;SDS011;54076;50.322;18.650;2023-12-20T04:43:26;12.40;;;5.40;;
47483;SDS011;54076;50.322;18.650;2023-12-20T04:48:27;11.40;;;5.60;;
47483;SDS011;54076;50.322;18.650;2023-12-20T04:53:28;11.60;;;5.30;;
47483;SDS011;54076;50.322;18.650;2023-12-20T04:58:29;12.20;;;5.50;;
47483;SDS011;54076;50.322;18.650;2023-12-20T05:03:30;10.90;;;5.70;;
47483;SDS011;54076;50.322;18.650;2023-12-20T05:08:31;15.80;;;6.10;;
47483;SDS011;54076;50.322;18.650;2023-12-20T05:13:32;12.10;;;5.90;;
47483;SDS011;54076;50.322;18.650;2023-12-20T05:18:33;11.20;;;5.60;;
47483;SDS011;54076;50.322;18.650;2023-12-20T05:23:34;11.00;;;5.30;;
47483;SDS011;54076;50.322;18.650;2023-12-20T05:28:35;12.90;;;6.20;;
47483;SDS011;54076;50.322;18.650;2023-12-20T05:33:36;13.30;;;7.10;;
47483;SDS011;54076;50.322;18.650;2023-12-20T05:38:37;13.30;;;7.10;;
47483;SDS011;54076;50.322;18.650;2023-12-20T05:43:39;14.40;;;6.60;;
47483;SDS011;54076;50.322;18.650;2023-12-20T05:48:40;13.30;;;6.70;;
47483;SDS011;54076;50.322;18.650;2023-12-20T05:53:41;12.20;;;6.10;;
47483;SDS011;54076;50.322;18.650;2023-12-20T05:58:42;13.20;;;7.10;;
47483;SDS011;54076;50.322;18.650;2023-12-20T06:03:44;16.70;;;6.80;;
47483;SDS011;54076;50.322;18.650;2023-12-20T06:08:46;15.20;;;6.90;;
47483;SDS011;54076;50.322;18.650;2023-12-20T06:13:47;15.90;;;7.40;;
47483;SDS011;54076;50.322;18.650;2023-12-20T06:18:49;20.30;;;8.20;;
47483;SDS011;54076;50.322;18.650;2023-12-20T06:23:50;16.10;;;8.20;;
47483;SDS011;54076;50.322;18.650;2023-12-20T06:28:51;17.80;;;7.80;;
47483;SDS011;54076;50.322;18.650;2023-12-20T06:33:52;19.10;;;8.90;;
47483;SDS011;54076;50.322;18.650;2023-12-20T06:38:58;20.10;;;9.40;;
47483;SDS011;54076;50.322;18.650;2023-12-20T06:43:59;17.80;;;8.90;;
47483;SDS011;54076;50.322;18.650;2023-12-20T06:49:00;20.20;;;9.70;;
47483;SDS011;54076;50.322;18.650;2023-12-20T06:54:00;19.80;;;9.00;;
47483;SDS011;54076;50.322;18.650;2023-12-20T06:59:03;16.80;;;8.50;;
47483;SDS011;54076;50.322;18.650;2023-12-20T07:04:04;19.40;;;8.80;;
47483;SDS011;54076;50.322;18.650;2023-12-20T07:09:05;17.50;;;8.70;;
47483;SDS011;54076;50.322;18.650;2023-12-20T07:14:06;20.30;;;8.60;;
47483;SDS011;54076;50.322;18.650;2023-12-20T07:19:07;20.10;;;9.20;;
47483;SDS011;54076;50.322;18.650;2023-12-20T07:24:08;18.40;;;8.60;;
47483;SDS011;54076;50.322;18.650;2023-12-20T07:29:09;18.20;;;8.20;;
47483;SDS011;54076;50.322;18.650;2023-12-20T07:34:11;16.80;;;9.00;;
47483;SDS011;54076;50.322;18.650;2023-12-20T07:39:12;15.70;;;7.70;;
47483;SDS011;54076;50.322;18.650;2023-12-20T07:44:13;17.40;;;7.30;;
47483;SDS011;54076;50.322;18.650;2023-12-20T07:49:14;18.10;;;8.80;;
47483;SDS011;54076;50.322;18.650;2023-12-20T07:54:15;16.90;;;7.80;;
47483;SDS011;54076;50.322;18.650;2023-12-20T07:59:16;15.90;;;8.30;;
47483;SDS011;54076;50.322;18.650;2023-12-20T08:04:17;16.70;;;9.30;;
47483;SDS011;54076;50.322;18.650;2023-12-20T08:09:18;18.20;;;9.70;;
47483;SDS011;54076;50.322;18.650;2023-12-20T08:14:20;21.30;;;9.50;;
47483;SDS011;54076;50.322;18.650;2023-12-20T08:19:22;16.60;;;8.10;;
47483;SDS011;54076;50.322;18.650;2023-12-20T08:24:23;19.10;;;8.50;;
47483;SDS011;54076;50.322;18.650;2023-12-20T08:29:24;21.80;;;10.60;;
47483;SDS011;54076;50.322;18.650;2023-12-20T08:34:25;23.10;;;10.80;;
47483;SDS011;54076;50.322;18.650;2023-12-20T08:39:26;19.20;;;10.10;;
47483;SDS011;54076;50.322;18.650;2023-12-20T08:44:27;18.00;;;9.10;;
47483;SDS011;54076;50.322;18.650;2023-12-20T08:49:28;21.90;;;10.60;;
47483;SDS011;54076;50.322;18.650;2023-12-20T08:54:29;19.60;;;9.80;;
47483;SDS011;54076;50.322;18.650;2023-12-20T08:59:30;16.70;;;9.40;;
47483;SDS011;54076;50.322;18.650;2023-12-20T09:04:31;15.40;;;7.50;;
47483;SDS011;54076;50.322;18.650;2023-12-20T09:09:32;16.20;;;7.70;;
47483;SDS011;54076;50.322;18.650;2023-12-20T09:14:33;18.00;;;9.10;;
47483;SDS011;54076;50.322;18.650;2023-12-20T09:19:34;16.50;;;8.90;;
47483;SDS011;54076;50.322;18.650;2023-12-20T09:24:36;16.60;;;7.70;;
47483;SDS011;54076;50.322;18.650;2023-12-20T09:29:37;16.70;;;8.20;;
47483;SDS011;54076;50.322;18.650;2023-12-20T09:34:38;14.10;;;7.10;;
47483;SDS011;54076;50.322;18.650;2023-12-20T09:39:38;14.30;;;7.50;;
47483;SDS011;54076;50.322;18.650;2023-12-20T09:44:39;16.90;;;8.50;;
47483;SDS011;54076;50.322;18.650;2023-12-20T09:49:42;14.60;;;7.20;;
47483;SDS011;54076;50.322;18.650;2023-12-20T09:54:45;18.00;;;7.60;;
47483;SDS011;54076;50.322;18.650;2023-12-20T09:59:50;16.70;;;8.80;;
47483;SDS011;54076;50.322;18.650;2023-12-20T10:04:51;15.00;;;8.00;;
47483;SDS011;54076;50.322;18.650;2023-12-20T10:09:52;16.60;;;7.30;;
47483;SDS011;54076;50.322;18.650;2023-12-20T10:14:57;13.10;;;6.60;;
47483;SDS011;54076;50.322;18.650;2023-12-20T10:19:58;14.70;;;7.00;;
47483;SDS011;54076;50.322;18.650;2023-12-20T10:24:59;12.70;;;6.40;;
47483;SDS011;54076;50.322;18.650;2023-12-20T10:30:00;14.40;;;7.10;;
47483;SDS011;54076;50.322;18.650;2023-12-20T10:35:01;19.30;;;9.50;;
47483;SDS011;54076;50.322;18.650;2023-12-20T10:40:04;18.30;;;8.50;;
47483;SDS011;54076;50.322;18.650;2023-12-20T10:45:07;15.90;;;7.10;;
47483;SDS011;54076;50.322;18.650;2023-12-20T10:50:08;16.30;;;8.30;;
47483;SDS011;54076;50.322;18.650;2023-12-20T10:55:10;18.90;;;8.40;;
47483;SDS011;54076;50.322;18.650;2023-12-20T11:00:12;16.20;;;7.60;;
47483;SDS011;54076;50.322;18.650;2023-12-20T11:05:24;15.00;;;6.60;;
47483;SDS011;54076;50.322;18.650;2023-12-20T11:10:59;11.80;;;6.40;;
47483;SDS011;54076;50.322;18.650;2023-12-20T11:16:07;11.90;;;5.40;;
47483;SDS011;54076;50.322;18.650;2023-12-20T11:21:08;11.60;;;6.00;;
47483;SDS011;54076;50.322;18.650;2023-12-20T11:26:11;11.30;;;5.60;;
47483;SDS011;54076;50.322;18.650;2023-12-20T11:31:16;11.90;;;5.30;;
47483;SDS011;54076;50.322;18.650;2023-12-20T11:36:20;11.30;;;4.80;;
47483;SDS011;54076;50.322;18.650;2023-12-20T11:41:26;10.10;;;4.10;;
47483;SDS011;54076;50.322;18.650;2023-12-20T11:46:27;12.40;;;5.40;;
47483;SDS011;54076;50.322;18.650;2023-12-20T11:51:28;10.70;;;5.10;;
47483;SDS011;54076;50.322;18.650;2023-12-20T11:56:29;10.60;;;4.40;;
47483;SDS011;54076;50.322;18.650;2023-12-20T12:01:31;9.30;;;4.50;;
47483;SDS011;54076;50.322;18.650;2023-12-20T12:06:33;10.00;;;5.00;;
47483;SDS011;54076;50.322;18.650;2023-12-20T12:11:34;10.50;;;4.70;;
47483;SDS011;54076;50.322;18.650;2023-12-20T12:16:35;14.50;;;6.90;;
47483;SDS011;54076;50.322;18.650;2023-12-20T12:21:36;11.20;;;4.90;;
47483;SDS011;54076;50.322;18.650;2023-12-20T12:26:38;11.00;;;4.50;;
47483;SDS011;54076;50.322;18.650;2023-12-20T12:31:39;10.80;;;5.00;;
47483;SDS011;54076;50.322;18.650;2023-12-20T12:36:40;12.00;;;5.10;;
47483;SDS011;54076;50.322;18.650;2023-12-20T12:41:41;11.40;;;5.20;;
47483;SDS011;54076;50.322;18.650;2023-12-20T12:46:42;11.30;;;5.40;;
47483;SDS011;54076;50.322;18.650;2023-12-20T12:51:43;12.90;;;5.80;;
47483;SDS011;54076;50.322;18.650;2023-12-20T12:56:45;14.20;;;5.50;;
47483;SDS011;54076;50.322;18.650;2023-12-20T13:01:48;13.20;;;5.60;;
47483;SDS011;54076;50.322;18.650;2023-12-20T13:06:49;12.90;;;5.90;;
47483;SDS011;54076;50.322;18.650;2023-12-20T13:11:50;12.00;;;5.80;;
47483;SDS011;54076;50.322;18.650;2023-12-20T13:16:51;13.30;;;5.50;;
47483;SDS011;54076;50.322;18.650;2023-12-20T13:21:53;15.10;;;6.20;;
47483;SDS011;54076;50.322;18.650;2023-12-20T13:39:27;14.80;;;6.00;;
47483;SDS011;54076;50.322;18.650;2023-12-20T13:44:28;13.70;;;6.30;;
47483;SDS011;54076;50.322;18.650;2023-12-20T13:49:29;16.40;;;7.10;;
47483;SDS011;54076;50.322;18.650;2023-12-20T13:54:30;15.40;;;6.80;;
47483;SDS011;54076;50.322;18.650;2023-12-20T13:59:32;13.80;;;5.50;;
47483;SDS011;54076;50.322;18.650;2023-12-20T14:04:33;12.60;;;6.10;;
47483;SDS011;54076;50.322;18.650;2023-12-20T14:09:37;14.00;;;5.50;;
47483;SDS011;54076;50.322;18.650;2023-12-20T14:14:38;16.00;;;6.50;;
47483;SDS011;54076;50.322;18.650;2023-12-20T14:19:39;18.30;;;6.50;;
47483;SDS011;54076;50.322;18.650;2023-12-20T14:24:40;12.80;;;6.80;;
47483;SDS011;54076;50.322;18.650;2023-12-20T14:29:42;15.60;;;7.30;;
47483;SDS011;54076;50.322;18.650;2023-12-20T14:34:43;14.50;;;7.50;;
47483;SDS011;54076;50.322;18.650;2023-12-20T14:39:44;13.40;;;6.00;;
47483;SDS011;54076;50.322;18.650;2023-12-20T14:44:45;14.70;;;6.30;;
47483;SDS011;54076;50.322;18.650;2023-12-20T14:49:47;13.50;;;6.80;;
47483;SDS011;54076;50.322;18.650;2023-12-20T14:54:48;14.70;;;7.70;;
47483;SDS011;54076;50.322;18.650;2023-12-20T14:59:50;16.20;;;7.00;;
47483;SDS011;54076;50.322;18.650;2023-12-20T15:04:51;15.60;;;7.40;;
47483;SDS011;54076;50.322;18.650;2023-12-20T15:09:56;13.70;;;6.50;;
47483;SDS011;54076;50.322;18.650;2023-12-20T15:14:57;15.90;;;7.90;;
47483;SDS011;54076;50.322;18.650;2023-12-20T15:19:58;15.60;;;7.20;;
47483;SDS011;54076;50.322;18.650;2023-12-20T15:25:00;15.00;;;7.40;;
47483;SDS011;54076;50.322;18.650;2023-12-20T15:30:02;15.80;;;6.90;;
47483;SDS011;54076;50.322;18.650;2023-12-20T15:35:04;18.60;;;7.50;;
47483;SDS011;54076;50.322;18.650;2023-12-20T15:40:10;18.60;;;7.90;;
47483;SDS011;54076;50.322;18.650;2023-12-20T15:45:13;18.40;;;8.50;;
47483;SDS011;54076;50.322;18.650;2023-12-20T15:50:14;22.50;;;9.40;;
47483;SDS011;54076;50.322;18.650;2023-12-20T15:55:17;23.00;;;9.40;;
47483;SDS011;54076;50.322;18.650;2023-12-20T16:00:19;18.00;;;9.20;;
47483;SDS011;54076;50.322;18.650;2023-12-20T16:05:20;26.50;;;10.20;;
47483;SDS011;54076;50.322;18.650;2023-12-20T16:10:22;21.50;;;9.50;;
47483;SDS011;54076;50.322;18.650;2023-12-20T16:15:24;24.10;;;9.60;;
47483;SDS011;54076;50.322;18.650;2023-12-20T16:20:25;25.00;;;10.40;;
47483;SDS011;54076;50.322;18.650;2023-12-20T16:25:26;23.90;;;10.40;;
47483;SDS011;54076;50.322;18.650;2023-12-20T16:30:27;25.20;;;10.20;;
47483;SDS011;54076;50.322;18.650;2023-12-20T16:35:29;22.90;;;10.20;;
47483;SDS011;54076;50.322;18.650;2023-12-20T16:40:30;25.10;;;10.70;;
47483;SDS011;54076;50.322;18.650;2023-12-20T16:45:32;20.70;;;10.40;;
47483;SDS011;54076;50.322;18.650;2023-12-20T16:50:33;26.80;;;11.10;;
47483;SDS011;54076;50.322;18.650;2023-12-20T16:55:34;22.50;;;10.50;;
47483;SDS011;54076;50.322;18.650;2023-12-20T17:00:36;23.30;;;10.70;;
47483;SDS011;54076;50.322;18.650;2023-12-20T17:05:37;27.90;;;11.70;;
47483;SDS011;54076;50.322;18.650;2023-12-20T17:10:38;31.80;;;13.10;;
47483;SDS011;54076;50.322;18.650;2023-12-20T17:15:39;28.00;;;12.50;;
47483;SDS011;54076;50.322;18.650;2023-12-20T17:20:42;26.30;;;11.80;;
47483;SDS011;54076;50.322;18.650;2023-12-20T17:25:43;27.40;;;11.30;;
47483;SDS011;54076;50.322;18.650;2023-12-20T17:30:44;25.30;;;10.60;;
47483;SDS011;54076;50.322;18.650;2023-12-20T17:35:46;28.50;;;11.10;;
47483;SDS011;54076;50.322;18.650;2023-12-20T17:40:48;23.70;;;10.40;;
47483;SDS011;54076;50.322;18.650;2023-12-20T17:45:50;22.80;;;10.00;;
47483;SDS011;54076;50.322;18.650;2023-12-20T17:50:51;19.40;;;9.90;;
47483;SDS011;54076;50.322;18.650;2023-12-20T17:55:52;21.20;;;9.60;;
47483;SDS011;54076;50.322;18.650;2023-12-20T18:00:54;23.50;;;9.70;;
47483;SDS011;54076;50.322;18.650;2023-12-20T18:05:55;18.50;;;8.80;;
47483;SDS011;54076;50.322;18.650;2023-12-20T18:10:56;22.10;;;9.60;;
47483;SDS011;54076;50.322;18.650;2023-12-20T18:15:57;18.60;;;8.70;;
47483;SDS011;54076;50.322;18.650;2023-12-20T18:20:58;21.70;;;8.80;;
47483;SDS011;54076;50.322;18.650;2023-12-20T18:26:00;20.50;;;9.10;;
47483;SDS011;54076;50.322;18.650;2023-12-20T18:31:01;24.10;;;10.00;;
47483;SDS011;54076;50.322;18.650;2023-12-20T18:36:03;21.30;;;9.00;;
47483;SDS011;54076;50.322;18.650;2023-12-20T18:41:05;21.40;;;8.40;;
47483;SDS011;54076;50.322;18.650;2023-12-20T18:46:06;18.30;;;8.00;;
47483;SDS011;54076;50.322;18.650;2023-12-20T18:51:08;18.80;;;7.40;;
47483;SDS011;54076;50.322;18.650;2023-12-20T18:56:09;16.50;;;7.10;;
47483;SDS011;54076;50.322;18.650;2023-12-20T19:01:10;16.60;;;7.50;;
47483;SDS011;54076;50.322;18.650;2023-12-20T19:06:11;15.80;;;6.90;;
47483;SDS011;54076;50.322;18.650;2023-12-20T19:11:12;16.40;;;6.60;;
47483;SDS011;54076;50.322;18.650;2023-12-20T19:16:14;20.30;;;7.20;;
47483;SDS011;54076;50.322;18.650;2023-12-20T19:21:15;19.90;;;6.30;;
47483;SDS011;54076;50.322;18.650;2023-12-20T19:26:16;16.20;;;7.10;;
47483;SDS011;54076;50.322;18.650;2023-12-20T19:31:17;12.50;;;6.50;;
47483;SDS011;54076;50.322;18.650;2023-12-20T19:36:20;14.00;;;6.50;;
47483;SDS011;54076;50.322;18.650;2023-12-20T19:41:21;16.70;;;8.00;;
47483;SDS011;54076;50.322;18.650;2023-12-20T19:46:22;15.60;;;6.90;;
47483;SDS011;54076;50.322;18.650;2023-12-20T19:51:23;16.10;;;6.10;;
47483;SDS011;54076;50.322;18.650;2023-12-20T19:56:25;13.80;;;5.90;;
47483;SDS011;54076;50.322;18.650;2023-12-20T20:01:26;9.40;;;4.80;;
47483;SDS011;54076;50.322;18.650;2023-12-20T20:06:30;11.50;;;5.00;;
47483;SDS011;54076;50.322;18.650;2023-12-20T20:11:31;11.30;;;5.40;;
47483;SDS011;54076;50.322;18.650;2023-12-20T20:16:33;12.80;;;5.90;;
47483;SDS011;54076;50.322;18.650;2023-12-20T20:21:34;12.20;;;5.90;;
47483;SDS011;54076;50.322;18.650;2023-12-20T20:26:35;17.10;;;6.60;;
47483;SDS011;54076;50.322;18.650;2023-12-20T20:31:36;16.50;;;7.10;;
47483;SDS011;54076;50.322;18.650;2023-12-20T20:36:38;22.20;;;7.90;;
47483;SDS011;54076;50.322;18.650;2023-12-20T20:41:39;22.10;;;8.20;;
47483;SDS011;54076;50.322;18.650;2023-12-20T20:46:40;19.20;;;7.30;;
47483;SDS011;54076;50.322;18.650;2023-12-20T20:51:41;15.90;;;6.30;;
47483;SDS011;54076;50.322;18.650;2023-12-20T20:56:43;16.60;;;5.80;;
47483;SDS011;54076;50.322;18.650;2023-12-20T21:01:44;15.80;;;6.60;;
47483;SDS011;54076;50.322;18.650;2023-12-20T21:06:45;16.30;;;6.70;;
47483;SDS011;54076;50.322;18.650;2023-12-20T21:11:49;19.10;;;7.80;;
47483;SDS011;54076;50.322;18.650;2023-12-20T21:16:50;12.80;;;5.60;;
47483;SDS011;54076;50.322;18.650;2023-12-20T21:21:51;14.00;;;6.20;;
47483;SDS011;54076;50.322;18.650;2023-12-20T21:26:52;15.20;;;6.30;;
47483;SDS011;54076;50.322;18.650;2023-12-20T21:31:53;10.40;;;4.20;;
47483;SDS011;54076;50.322;18.650;2023-12-20T21:36:54;10.50;;;4.70;;
47483;SDS011;54076;50.322;18.650;2023-12-20T21:41:58;11.70;;;4.60;;
47483;SDS011;54076;50.322;18.650;2023-12-20T21:46:59;11.20;;;5.00;;
47483;SDS011;54076;50.322;18.650;2023-12-20T21:52:00;11.20;;;5.40;;
47483;SDS011;54076;50.322;18.650;2023-12-20T21:57:01;10.60;;;6.00;;
47483;SDS011;54076;50.322;18.650;2023-12-20T22:02:03;9.30;;;4.30;;
47483;SDS011;54076;50.322;18.650;2023-12-20T22:07:04;9.30;;;4.50;;
47483;SDS011;54076;50.322;18.650;2023-12-20T22:12:07;12.30;;;6.00;;
47483;SDS011;54076;50.322;18.650;2023-12-20T22:17:09;10.30;;;4.80;;
47483;SDS011;54076;50.322;18.650;2023-12-20T22:22:11;7.90;;;3.50;;
47483;SDS011;54076;50.322;18.650;2023-12-20T22:27:12;8.90;;;3.90;;
47483;SDS011;54076;50.322;18.650;2023-12-20T22:32:13;11.80;;;4.20;;
47483;SDS011;54076;50.322;18.650;2023-12-20T22:37:15;10.50;;;4.00;;
47483;SDS011;54076;50.322;18.650;2023-12-20T22:42:16;8.30;;;3.90;;
47483;SDS011;54076;50.322;18.650;2023-12-20T22:47:18;9.20;;;3.90;;
47483;SDS011;54076;50.322;18.650;2023-12-20T22:52:20;4.70;;;2.30;;
47483;SDS011;54076;50.322;18.650;2023-12-20T22:57:24;4.70;;;2.50;;
47483;SDS011;54076;50.322;18.650;2023-12-20T23:02:26;7.60;;;2.60;;
47483;SDS011;54076;50.322;18.650;2023-12-20T23:07:27;7.40;;;2.80;;
47483;SDS011;54076;50.322;18.650;2023-12-20T23:12:28;5.00;;;2.10;;
47483;SDS011;54076;50.322;18.650;2023-12-20T23:17:32;6.40;;;2.20;;
47483;SDS011;54076;50.322;18.650;2023-12-20T23:22:33;5.20;;;2.40;;
47483;SDS011;54076;50.322;18.650;2023-12-20T23:27:35;5.40;;;2.80;;
47483;SDS011;54076;50.322;18.650;2023-12-20T23:32:39;7.70;;;3.70;;
47483;SDS011;54076;50.322;18.650;2023-12-20T23:37:40;7.30;;;3.10;;
47483;SDS011;54076;50.322;18.650;2023-12-20T23:42:41;7.60;;;2.80;;
47483;SDS011;54076;50.322;18.650;2023-12-20T23:47:43;6.80;;;2.70;;
47483;SDS011;54076;50.322;18.650;2023-12-20T23:52:45;7.50;;;2.60;;
47483;SDS011;54076;50.322;18.650;2023-12-20T23:57:48;6.50;;;3.20;;
